Time;durP1;ratioP1;P1;durP2;ratioP2;P2;SDS_P1;SDS_P2;PMS_P1;PMS_P2;Temp;Humidity;BMP_temperature;BMP_pressure;BME280_temperature;BME280_humidity;BME280_pressure;Samples;Min_cycle;Max_cycle;Signal;HPM_P1;HPM_P2
2022/04/10 00:00:10;;;;;;;;;;;;;;;5.71;100.00;99270.38;5072927;28;19955;-78
2022/04/10 00:02:40;;;;;;;;;;;;;;;5.87;100.00;99259.78;5055155;28;19925;-78
2022/04/10 00:05:07;;;;;;;;;;;;;;;5.99;100.00;99265.00;5071441;28;20299;-78
2022/04/10 00:07:34;;;;;;;;;;;;;;;5.81;100.00;99264.06;5055126;28;19932;-78
2022/04/10 00:10:01;;;;;;;;;;;;;;;6.09;100.00;99267.06;5055074;28;19947;-78
2022/04/10 00:12:29;;;;;;;;;;;;;;;6.18;100.00;99261.94;5072805;28;19932;-78
2022/04/10 00:14:56;;;;;;;;;;;;;;;6.15;100.00;99265.50;5055039;28;19932;-78
2022/04/10 00:17:23;;;;;;;;;;;;;;;6.07;100.00;99255.53;5054837;28;19931;-78
2022/04/10 00:19:50;;;;;;;;;;;;;;;6.11;100.00;99256.34;5072401;28;19935;-78
2022/04/10 00:22:17;;;;;;;;;;;;;;;6.14;100.00;99250.03;5072630;28;20023;-78
2022/04/10 00:24:45;;;;;;;;;;;;;;;5.97;100.00;99247.97;5071401;28;19954;-78
2022/04/10 00:27:13;;;;;;;;;;;;;;;5.77;100.00;99252.19;5054600;28;20369;-78
2022/04/10 00:29:41;;;;;;;;;;;;;;;5.13;100.00;99248.16;5076429;28;19924;-78
2022/04/10 00:32:08;;;;;;;;;;;;;;;4.75;100.00;99252.16;5041885;28;19924;-78
2022/04/10 00:34:35;;;;;;;;;;;;;;;4.46;100.00;99249.47;5041594;28;20342;-78
2022/04/10 00:37:03;;;;;;;;;;;;;;;4.63;100.00;99259.94;5058450;28;19931;-78
2022/04/10 00:39:30;;;;;;;;;;;;;;;4.87;100.00;99259.38;5058416;28;19931;-78
2022/04/10 00:41:57;;;;;;;;;;;;;;;4.35;100.00;99249.34;5058487;28;19924;-78
2022/04/10 00:44:24;;;;;;;;;;;;;;;4.55;100.00;99250.75;5075127;28;19998;-78
2022/04/10 00:46:51;;;;;;;;;;;;;;;4.19;100.00;99248.75;5075676;28;19955;-78
2022/04/10 00:49:19;;;;;;;;;;;;;;;4.62;100.00;99236.22;5058247;28;19974;-79
2022/04/10 00:51:46;;;;;;;;;;;;;;;4.64;100.00;99234.66;5058327;28;19930;-78
2022/04/10 00:54:15;;;;;;;;;;;;;;;4.42;100.00;99237.56;5076010;28;19925;-78
2022/04/10 00:56:46;;;;;;;;;;;;;;;4.05;100.00;99243.06;5058166;28;19970;-78
2022/04/10 00:59:14;;;;;;;;;;;;;;;4.27;100.00;99239.34;5074692;28;19940;-78
2022/04/10 01:01:45;;;;;;;;;;;;;;;4.36;100.00;99228.78;5041456;28;19932;-78
2022/04/10 01:04:32;;;;;;;;;;;;;;;4.52;100.00;99242.41;5057868;28;19960;-78
2022/04/10 01:07:00;;;;;;;;;;;;;;;4.38;100.00;99236.72;5057910;28;19932;-78
2022/04/10 01:09:29;;;;;;;;;;;;;;;3.86;100.00;99237.69;5074587;28;19928;-78
2022/04/10 01:11:56;;;;;;;;;;;;;;;4.11;100.00;99230.47;5075705;28;20375;-78
2022/04/10 01:14:26;;;;;;;;;;;;;;;3.94;100.00;99238.56;5057875;28;19930;-78
2022/04/10 01:16:53;;;;;;;;;;;;;;;4.10;100.00;99231.66;5057436;28;19925;-78
2022/04/10 01:19:21;;;;;;;;;;;;;;;4.20;100.00;99242.06;5057953;28;19982;-78
2022/04/10 01:21:53;;;;;;;;;;;;;;;3.82;100.00;99250.63;5091491;28;19963;-78
2022/04/10 01:24:20;;;;;;;;;;;;;;;3.56;100.00;99251.47;5041077;28;19932;-78
2022/04/10 01:26:47;;;;;;;;;;;;;;;3.54;100.00;99250.25;5057650;28;19924;-78
2022/04/10 01:29:19;;;;;;;;;;;;;;;3.69;100.00;99250.09;5040939;28;19928;-78
2022/04/10 01:31:46;;;;;;;;;;;;;;;3.91;100.00;99253.16;5075038;28;19971;-78
2022/04/10 01:34:14;;;;;;;;;;;;;;;3.59;100.00;99249.91;5057375;28;19963;-78
2022/04/10 01:36:44;;;;;;;;;;;;;;;3.45;100.00;99246.97;5057836;28;19924;-78
2022/04/10 01:39:15;;;;;;;;;;;;;;;3.34;100.00;99254.28;5090460;28;19925;-78
2022/04/10 01:41:45;;;;;;;;;;;;;;;3.61;100.00;99245.63;5057410;28;19924;-78
2022/04/10 01:44:12;;;;;;;;;;;;;;;3.08;100.00;99240.44;5075089;28;20398;-78
2022/04/10 01:46:40;;;;;;;;;;;;;;;3.51;100.00;99242.72;5056824;28;20031;-78
2022/04/10 01:49:09;;;;;;;;;;;;;;;3.44;100.00;99242.59;5040439;28;19987;-78
2022/04/10 01:51:36;;;;;;;;;;;;;;;3.23;100.00;99237.53;5057195;28;20372;-78
2022/04/10 01:54:04;;;;;;;;;;;;;;;3.41;100.00;99243.31;5073670;28;20003;-78
2022/04/10 01:56:32;;;;;;;;;;;;;;;3.48;100.00;99237.94;5057126;28;19963;-78
2022/04/10 01:59:01;;;;;;;;;;;;;;;3.59;100.00;99242.44;5057016;28;19954;-78
2022/04/10 02:01:28;;;;;;;;;;;;;;;3.10;100.00;99232.59;5039988;28;19931;-78
2022/04/10 02:03:55;;;;;;;;;;;;;;;2.84;100.00;99236.13;5057061;28;19978;-78
2022/04/10 02:06:22;;;;;;;;;;;;;;;2.55;100.00;99245.03;5056836;28;19931;-78
2022/04/10 02:08:51;;;;;;;;;;;;;;;3.09;100.00;99245.59;5040304;28;19971;-78
2022/04/10 02:11:21;;;;;;;;;;;;;;;2.71;100.00;99244.94;5040141;28;19974;-78
2022/04/10 02:13:52;;;;;;;;;;;;;;;3.15;100.00;99246.09;5056560;28;19991;-78
2022/04/10 02:16:19;;;;;;;;;;;;;;;2.99;100.00;99237.94;5056396;28;19924;-78
2022/04/10 02:18:48;;;;;;;;;;;;;;;2.98;100.00;99241.06;5056728;28;19970;-78
2022/04/10 02:21:15;;;;;;;;;;;;;;;3.13;100.00;99231.84;5056715;28;19932;-78
2022/04/10 02:23:43;;;;;;;;;;;;;;;3.14;100.00;99237.00;5056520;28;20018;-78
2022/04/10 02:26:10;;;;;;;;;;;;;;;3.04;100.00;99234.88;5056448;28;19928;-78
2022/04/10 02:28:38;;;;;;;;;;;;;;;2.60;100.00;99235.66;5072537;28;19929;-78
2022/04/10 02:31:06;;;;;;;;;;;;;;;2.92;100.00;99239.78;5073219;28;19924;-78
2022/04/10 02:33:35;;;;;;;;;;;;;;;2.93;100.00;99238.63;5074314;28;20011;-78
2022/04/10 02:36:02;;;;;;;;;;;;;;;2.89;100.00;99243.28;5056274;28;20276;-78
2022/04/10 02:38:29;;;;;;;;;;;;;;;2.19;100.00;99230.94;5056115;28;19935;-78
2022/04/10 02:40:57;;;;;;;;;;;;;;;2.58;100.00;99249.03;5039666;28;19967;-78
2022/04/10 02:43:24;;;;;;;;;;;;;;;2.56;100.00;99248.63;5054975;28;19931;-78
2022/04/10 02:45:56;;;;;;;;;;;;;;;2.77;100.00;99249.78;5039712;28;19924;-78
2022/04/10 02:48:24;;;;;;;;;;;;;;;2.83;100.00;99244.75;5039284;28;19930;-78
2022/04/10 02:50:52;;;;;;;;;;;;;;;2.83;100.00;99242.00;5055271;28;19925;-78
2022/04/10 02:53:19;;;;;;;;;;;;;;;2.82;100.00;99251.44;5039250;28;20341;-78
2022/04/10 02:55:48;;;;;;;;;;;;;;;2.77;100.00;99257.28;5056038;28;19925;-78
2022/04/10 02:58:34;;;;;;;;;;;;;;;2.81;100.00;99247.88;5073341;28;20290;-78
2022/04/10 03:01:21;;;;;;;;;;;;;;;2.83;100.00;99245.53;5058523;28;20303;-78
2022/04/10 03:04:08;;;;;;;;;;;;;;;2.85;100.00;99242.41;5058852;28;20273;-78
2022/04/10 03:06:55;;;;;;;;;;;;;;;2.67;100.00;99252.34;5058656;28;19947;-78
2022/04/10 03:09:40;;;;;;;;;;;;;;;2.72;100.00;99249.28;5058440;28;19925;-78
2022/04/10 03:12:26;;;;;;;;;;;;;;;2.71;100.00;99251.25;5058266;28;19931;-78
2022/04/10 03:15:12;;;;;;;;;;;;;;;2.53;100.00;99250.13;5058641;28;19924;-78
2022/04/10 03:17:58;;;;;;;;;;;;;;;2.35;100.00;99246.22;5073272;28;19930;-78
2022/04/10 03:20:45;;;;;;;;;;;;;;;2.54;100.00;99253.69;5058275;28;19925;-78
2022/04/10 03:23:31;;;;;;;;;;;;;;;2.47;100.00;99251.59;5086835;28;20006;-78
2022/04/10 03:26:17;;;;;;;;;;;;;;;2.61;100.00;99259.31;5057996;28;19956;-78
2022/04/10 03:29:03;;;;;;;;;;;;;;;2.64;100.00;99255.84;5041374;28;19924;-77
2022/04/10 03:31:50;;;;;;;;;;;;;;;2.66;100.00;99250.75;5058526;28;19974;-78
2022/04/10 03:34:35;;;;;;;;;;;;;;;1.87;100.00;99257.84;5058120;28;19929;-78
2022/04/10 03:37:21;;;;;;;;;;;;;;;2.26;100.00;99253.16;5073177;28;19925;-77
2022/04/10 03:40:08;;;;;;;;;;;;;;;2.48;100.00;99260.66;5057930;28;19954;-78
2022/04/10 03:42:57;;;;;;;;;;;;;;;2.07;100.00;99269.69;5058294;28;19924;-78
2022/04/10 03:45:43;;;;;;;;;;;;;;;2.15;100.00;99263.94;5058014;28;19924;-78
2022/04/10 03:48:28;;;;;;;;;;;;;;;2.21;100.00;99261.72;5057672;28;19925;-77
2022/04/10 03:51:14;;;;;;;;;;;;;;;2.24;100.00;99256.28;5057850;28;19925;-78
2022/04/10 03:54:02;;;;;;;;;;;;;;;2.28;100.00;99264.59;5086454;28;19928;-78
2022/04/10 03:56:48;;;;;;;;;;;;;;;2.29;100.00;99252.44;5043691;28;20082;-78
2022/04/10 03:59:33;;;;;;;;;;;;;;;2.31;100.00;99255.59;5040784;28;19932;-78
2022/04/10 04:02:19;;;;;;;;;;;;;;;2.27;100.00;99254.75;5059827;28;19935;-78
2022/04/10 04:05:07;;;;;;;;;;;;;;;2.22;100.00;99255.84;5062171;28;20027;-78
2022/04/10 04:07:55;;;;;;;;;;;;;;;2.30;100.00;99237.47;5062034;28;19935;-78
2022/04/10 04:10:43;;;;;;;;;;;;;;;2.17;100.00;99233.25;5089979;28;19924;-78
2022/04/10 04:13:29;;;;;;;;;;;;;;;2.29;100.00;99231.16;5090204;28;19925;-78
2022/04/10 04:16:14;;;;;;;;;;;;;;;2.36;100.00;99230.50;5061657;28;20386;-78
2022/04/10 04:19:01;;;;;;;;;;;;;;;2.30;100.00;99242.97;5061605;28;19924;-78
2022/04/10 04:21:46;;;;;;;;;;;;;;;2.34;100.00;99243.84;5061581;28;20398;-78
2022/04/10 04:24:33;;;;;;;;;;;;;;;2.14;100.00;99242.25;5061215;28;20314;-78
2022/04/10 04:27:19;;;;;;;;;;;;;;;2.28;100.00;99234.28;5061661;28;20361;-78
2022/04/10 04:30:05;;;;;;;;;;;;;;;2.20;100.00;99227.00;5061409;28;19924;-77
2022/04/10 04:32:53;;;;;;;;;;;;;;;2.18;100.00;99240.38;5061335;28;20014;-78
2022/04/10 04:35:38;;;;;;;;;;;;;;;2.08;100.00;99247.28;5061346;28;20069;-77
2022/04/10 04:38:25;;;;;;;;;;;;;;;2.07;100.00;99250.38;5089777;28;19924;-78
2022/04/10 04:41:11;;;;;;;;;;;;;;;2.09;100.00;99248.84;5076324;28;20302;-78
2022/04/10 04:43:58;;;;;;;;;;;;;;;2.03;100.00;99244.03;5061230;28;19925;-78
2022/04/10 04:46:44;;;;;;;;;;;;;;;2.13;100.00;99248.94;5060825;28;19948;-78
2022/04/10 04:49:30;;;;;;;;;;;;;;;2.13;100.00;99248.94;5076156;28;20298;-78
2022/04/10 04:52:18;;;;;;;;;;;;;;;1.30;100.00;99249.50;5061089;28;20317;-77
2022/04/10 04:55:04;;;;;;;;;;;;;;;1.39;100.00;99250.88;5060753;28;19924;-78
2022/04/10 04:57:50;;;;;;;;;;;;;;;1.80;100.00;99258.50;5060838;28;20317;-78
2022/04/10 05:00:36;;;;;;;;;;;;;;;1.70;100.00;99256.31;5060773;28;19930;-78
2022/04/10 05:03:21;;;;;;;;;;;;;;;1.66;100.00;99254.66;5074763;28;19925;-77
2022/04/10 05:06:07;;;;;;;;;;;;;;;1.44;100.00;99258.88;5060804;28;19946;-77
2022/04/10 05:08:52;;;;;;;;;;;;;;;1.33;100.00;99260.56;5076924;28;19961;-77
2022/04/10 05:11:39;;;;;;;;;;;;;;;1.74;100.00;99259.94;5060708;28;20375;-77
2022/04/10 05:14:24;;;;;;;;;;;;;;;1.91;100.00;99268.97;5059821;28;19931;-78
2022/04/10 05:17:11;;;;;;;;;;;;;;;2.01;100.00;99269.19;5088865;28;19956;-78
2022/04/10 05:20:06;;;;;;;;;;;;;;;1.88;100.00;99271.28;5060405;28;19974;-78
2022/04/10 05:22:58;;;;;;;;;;;;;;;1.83;100.00;99268.78;5060188;28;19925;-78
2022/04/10 05:25:46;;;;;;;;;;;;;;;1.79;100.00;99269.88;5088910;28;19974;-78
2022/04/10 05:28:33;;;;;;;;;;;;;;;1.74;100.00;99270.97;5076833;28;20372;-78
2022/04/10 05:31:19;;;;;;;;;;;;;;;1.84;100.00;99273.16;5060278;28;20303;-77
2022/04/10 05:34:05;;;;;;;;;;;;;;;2.15;100.00;99274.19;5041436;28;20280;-78
2022/04/10 05:36:51;;;;;;;;;;;;;;;2.30;100.00;99276.88;5057291;28;20350;-78
2022/04/10 05:39:39;;;;;;;;;;;;;;;2.33;100.00;99258.81;5060290;28;20031;-77
2022/04/10 05:42:26;;;;;;;;;;;;;;;2.42;100.00;99268.44;5060088;28;20355;-77
2022/04/10 05:45:13;;;;;;;;;;;;;;;2.55;100.00;99271.81;5060170;28;20498;-78
2022/04/10 05:48:03;;;;;;;;;;;;;;;2.81;100.00;99263.63;5059845;28;20508;-78
2022/04/10 05:50:50;;;;;;;;;;;;;;;3.04;100.00;99267.22;5060090;28;19970;-78
2022/04/10 05:53:36;;;;;;;;;;;;;;;3.13;100.00;99265.00;5073639;28;20398;-78
2022/04/10 05:56:22;;;;;;;;;;;;;;;3.51;100.00;99265.59;5088492;28;20371;-78
2022/04/10 05:59:09;;;;;;;;;;;;;;;3.18;100.00;99261.94;5059966;28;19925;-77
2022/04/10 06:01:56;;;;;;;;;;;;;;;3.57;100.00;99269.63;5074134;28;20065;-77
2022/04/10 06:04:43;;;;;;;;;;;;;;;3.78;100.00;99262.81;5059686;28;19932;-78
2022/04/10 06:07:32;;;;;;;;;;;;;;;4.38;100.00;99262.41;5059122;28;19931;-78
2022/04/10 06:10:17;;;;;;;;;;;;;;;4.83;100.00;99261.34;5059830;28;19924;-78
2022/04/10 06:13:07;;;;;;;;;;;;;;;5.04;100.00;99259.53;5059756;28;19960;-78
2022/04/10 06:15:40;;;;;;;;;;;;;;;4.92;100.00;99256.28;5090152;28;19928;-78
2022/04/10 06:18:08;;;;;;;;;;;;;;;4.72;100.00;99263.19;5056539;28;19954;-78
2022/04/10 06:20:38;;;;;;;;;;;;;;;4.68;100.00;99256.81;5040021;28;19925;-78
2022/04/10 06:23:06;;;;;;;;;;;;;;;4.67;100.00;99261.56;5056921;28;19970;-78
2022/04/10 06:25:33;;;;;;;;;;;;;;;4.88;100.00;99260.97;5055400;28;19976;-78
2022/04/10 06:28:01;;;;;;;;;;;;;;;4.96;100.00;99259.88;5072858;28;20406;-78
2022/04/10 06:30:36;;;;;;;;;;;;;;;4.89;100.00;99252.28;5056715;28;19963;-78
2022/04/10 06:33:03;;;;;;;;;;;;;;;4.91;100.00;99258.25;5089804;28;19928;-78
2022/04/10 06:35:31;;;;;;;;;;;;;;;5.17;100.00;99254.50;5056082;28;20026;-78
2022/04/10 06:38:03;;;;;;;;;;;;;;;5.28;100.00;99258.16;5039793;28;19979;-78
2022/04/10 06:40:30;;;;;;;;;;;;;;;5.84;100.00;99257.78;5056206;28;20353;-78
2022/04/10 06:42:58;;;;;;;;;;;;;;;6.47;100.00;99253.31;5039958;28;20015;-78
2022/04/10 06:45:46;;;;;;;;;;;;;;;7.41;100.00;99249.09;5073592;28;19924;-78
2022/04/10 06:48:24;;;;;;;;;;;;;;;8.37;100.00;99242.94;5039432;28;20371;-78
2022/04/10 06:50:51;;;;;;;;;;;;;;;9.26;100.00;99246.75;5055780;28;19931;-78
2022/04/10 06:53:25;;;;;;;;;;;;;;;10.38;100.00;99248.44;5056054;28;20413;-78
2022/04/10 06:55:52;;;;;;;;;;;;;;;10.18;100.00;99252.25;5056074;28;19968;-78
2022/04/10 06:58:22;;;;;;;;;;;;;;;10.58;100.00;99243.00;5039320;28;20514;-78
2022/04/10 07:00:51;;;;;;;;;;;;;;;10.82;100.00;99253.03;5055583;28;19959;-78
2022/04/10 07:03:19;;;;;;;;;;;;;;;11.29;100.00;99242.75;5055803;28;20394;-78
2022/04/10 07:05:48;;;;;;;;;;;;;;;11.39;100.00;99239.78;5072042;28;20383;-78
2022/04/10 07:08:21;;;;;;;;;;;;;;;10.74;100.00;99245.97;5055684;28;19977;-76
2022/04/10 07:10:49;;;;;;;;;;;;;;;10.26;100.00;99251.78;5039267;28;19952;-76
2022/04/10 07:13:17;;;;;;;;;;;;;;;10.00;100.00;99257.22;5055804;28;19967;-78
2022/04/10 07:15:45;;;;;;;;;;;;;;;10.68;100.00;99251.22;5055518;28;19924;-78
2022/04/10 07:18:13;;;;;;;;;;;;;;;11.05;100.00;99253.13;5055178;28;19925;-78
2022/04/10 07:20:41;;;;;;;;;;;;;;;10.75;100.00;99253.16;5055724;28;19955;-78
2022/04/10 07:25:55;;;;;;;;;;;;;;;11.67;100.00;99250.53;5055593;28;20059;-78
2022/04/10 07:28:22;;;;;;;;;;;;;;;11.88;100.00;99250.16;5055393;28;19925;-78
2022/04/10 07:30:52;;;;;;;;;;;;;;;12.13;100.00;99247.66;5055369;28;19930;-79
2022/04/10 07:33:20;;;;;;;;;;;;;;;12.40;100.00;99245.50;5055257;28;19931;-79
2022/04/10 07:35:54;;;;;;;;;;;;;;;12.62;100.00;99248.66;5055349;28;20058;-79
2022/04/10 07:38:33;;;;;;;;;;;;;;;12.51;100.00;99251.69;5055306;28;19974;-78
2022/04/10 07:41:05;;;;;;;;;;;;;;;13.07;100.00;99254.53;5038343;28;20391;-78
2022/04/10 07:43:38;;;;;;;;;;;;;;;13.44;100.00;99249.22;5055494;28;19925;-79
2022/04/10 07:48:55;;;;;;;;;;;;;;;13.73;100.00;99238.06;5054864;28;19978;-79
2022/04/10 07:51:26;;;;;;;;;;;;;;;13.65;100.00;99231.03;5055266;28;19978;-79
2022/04/10 07:54:02;;;;;;;;;;;;;;;13.31;100.00;99245.53;5038711;28;20019;-79
2022/04/10 07:56:30;;;;;;;;;;;;;;;13.15;100.00;99253.13;5055117;28;20383;-79
2022/04/10 07:58:58;;;;;;;;;;;;;;;13.55;100.00;99251.75;5054877;28;19925;-79
2022/04/10 08:01:39;;;;;;;;;;;;;;;13.85;100.00;99246.56;5038654;28;19932;-79
2022/04/10 08:04:09;;;;;;;;;;;;;;;14.15;100.00;99242.53;5054927;28;20402;-79
2022/04/10 08:06:45;;;;;;;;;;;;;;;14.17;100.00;99237.28;5054996;28;19924;-79
2022/04/10 08:09:12;;;;;;;;;;;;;;;14.38;100.00;99243.13;5038405;28;19924;-79
2022/04/10 08:11:39;;;;;;;;;;;;;;;14.30;100.00;99238.13;5071591;28;19925;-79
2022/04/10 08:14:07;;;;;;;;;;;;;;;14.31;100.00;99239.72;5072847;28;19968;-79
2022/04/10 08:16:34;;;;;;;;;;;;;;;14.27;100.00;99233.41;5072600;28;19931;-79
2022/04/10 08:19:01;;;;;;;;;;;;;;;14.55;100.00;99232.59;5072693;28;19935;-80
2022/04/10 08:21:28;;;;;;;;;;;;;;;14.79;100.00;99231.06;5054896;28;19964;-79
2022/04/10 08:23:55;;;;;;;;;;;;;;;14.16;100.00;99235.72;5072685;28;19939;-79
2022/04/10 08:26:22;;;;;;;;;;;;;;;12.58;100.00;99237.56;5072528;28;20326;-79
2022/04/10 08:28:49;;;;;;;;;;;;;;;13.82;100.00;99241.03;5054444;28;19924;-79
2022/04/10 08:31:16;;;;;;;;;;;;;;;14.04;100.00;99236.44;5072428;28;19925;-79
2022/04/10 08:33:43;;;;;;;;;;;;;;;14.41;100.00;99247.06;5088132;28;19928;-79
2022/04/10 08:36:10;;;;;;;;;;;;;;;13.93;100.00;99242.31;5087894;28;19960;-79
2022/04/10 08:38:37;;;;;;;;;;;;;;;13.12;100.00;99256.81;5054518;28;19924;-79
2022/04/10 08:41:06;;;;;;;;;;;;;;;14.07;100.00;99247.56;5053557;28;19975;-79
2022/04/10 08:43:35;;;;;;;;;;;;;;;14.04;100.00;99247.69;5072349;28;19932;-79
2022/04/10 08:46:03;;;;;;;;;;;;;;;13.30;100.00;99248.78;5037930;28;20021;-79
2022/04/10 08:48:31;;;;;;;;;;;;;;;14.49;100.00;99242.81;5072781;28;19924;-79
2022/04/10 08:50:59;;;;;;;;;;;;;;;14.79;100.00;99247.16;5076208;28;19925;-79
2022/04/10 08:53:26;;;;;;;;;;;;;;;14.63;100.00;99238.81;5076027;28;20287;-79
2022/04/10 08:55:54;;;;;;;;;;;;;;;13.57;100.00;99249.31;5058240;28;20460;-79
2022/04/10 08:58:22;;;;;;;;;;;;;;;14.61;100.00;99250.50;5075910;28;20294;-79
2022/04/10 09:00:50;;;;;;;;;;;;;;;15.25;100.00;99235.28;5057730;28;20019;-79
2022/04/10 09:03:18;;;;;;;;;;;;;;;15.34;100.00;99233.34;5057705;28;19924;-79
2022/04/10 09:06:00;;;;;;;;;;;;;;;15.10;100.00;99223.66;5075720;28;19925;-79
2022/04/10 09:08:27;;;;;;;;;;;;;;;14.88;100.00;99230.41;5058022;28;20291;-79
2022/04/10 09:10:54;;;;;;;;;;;;;;;14.15;100.00;99223.66;5075760;28;19928;-79
2022/04/10 09:13:26;;;;;;;;;;;;;;;13.42;100.00;99228.44;5057821;28;19950;-79
2022/04/10 09:16:12;;;;;;;;;;;;;;;13.82;100.00;99239.03;5057326;28;19928;-79
2022/04/10 09:18:46;;;;;;;;;;;;;;;13.74;100.00;99223.56;5075309;28;20382;-79
2022/04/10 09:21:14;;;;;;;;;;;;;;;12.69;100.00;99226.13;5057143;28;19925;-79
2022/04/10 09:23:44;;;;;;;;;;;;;;;13.69;100.00;99220.53;5074820;28;20015;-79
2022/04/10 09:26:13;;;;;;;;;;;;;;;13.53;100.00;99217.72;5090184;28;20113;-79
2022/04/10 09:28:41;;;;;;;;;;;;;;;13.91;100.00;99210.28;5056434;28;19990;-79
2022/04/10 09:31:25;;;;;;;;;;;;;;;13.72;100.00;99208.41;5056419;28;19924;-79
2022/04/10 09:33:53;;;;;;;;;;;;;;;13.94;100.00;99209.41;5074090;28;20019;-79
2022/04/10 09:36:30;;;;;;;;;;;;;;;13.46;100.00;99212.28;5074229;28;20284;-79
2022/04/10 09:38:57;;;;;;;;;;;;;;;13.64;100.00;99215.44;5056679;28;19925;-79
2022/04/10 09:41:24;;;;;;;;;;;;;;;13.75;100.00;99208.28;5074516;28;19932;-79
2022/04/10 09:43:51;;;;;;;;;;;;;;;13.82;100.00;99207.34;5040118;28;19939;-79
2022/04/10 09:46:19;;;;;;;;;;;;;;;13.81;100.00;99205.75;5090166;28;20375;-79
2022/04/10 09:48:46;;;;;;;;;;;;;;;13.04;100.00;99205.69;5056646;28;19925;-79
2022/04/10 09:51:13;;;;;;;;;;;;;;;13.14;100.00;99213.06;5040387;28;19924;-79
2022/04/10 09:53:41;;;;;;;;;;;;;;;11.77;100.00;99217.97;5057294;28;19924;-79
2022/04/10 09:56:08;;;;;;;;;;;;;;;12.54;100.00;99210.81;5074685;28;20030;-79
2022/04/10 09:58:36;;;;;;;;;;;;;;;12.77;100.00;99217.09;5040157;28;19963;-80
2022/04/10 10:01:04;;;;;;;;;;;;;;;12.90;100.00;99213.63;5074189;28;19974;-79
2022/04/10 10:03:36;;;;;;;;;;;;;;;13.25;100.00;99215.63;5089960;28;19960;-79
2022/04/10 10:06:05;;;;;;;;;;;;;;;13.64;100.00;99201.41;5074319;28;19925;-79
2022/04/10 10:08:33;;;;;;;;;;;;;;;12.76;100.00;99203.50;5056481;28;19946;-79
2022/04/10 10:11:00;;;;;;;;;;;;;;;11.74;100.00;99194.41;5090132;28;19925;-79
2022/04/10 10:13:27;;;;;;;;;;;;;;;12.08;100.00;99203.38;5056244;28;19924;-79
2022/04/10 10:15:57;;;;;;;;;;;;;;;12.78;100.00;99207.47;5074280;28;19985;-79
2022/04/10 10:18:25;;;;;;;;;;;;;;;12.25;100.00;99191.00;5039868;28;20391;-79
2022/04/10 10:20:53;;;;;;;;;;;;;;;12.71;100.00;99207.63;5089607;28;19932;-79
2022/04/10 10:23:22;;;;;;;;;;;;;;;12.13;100.00;99211.25;5073910;28;19932;-79
2022/04/10 10:25:59;;;;;;;;;;;;;;;11.38;100.00;99212.22;5073741;28;20355;-79
2022/04/10 10:28:46;;;;;;;;;;;;;;;11.89;100.00;99218.13;5089186;28;19958;-79
2022/04/10 10:31:29;;;;;;;;;;;;;;;12.85;100.00;99208.50;5074136;28;20023;-79
2022/04/10 10:34:07;;;;;;;;;;;;;;;12.94;100.00;99206.69;5073847;28;20244;-79
2022/04/10 10:36:34;;;;;;;;;;;;;;;12.16;100.00;99204.78;5056013;28;19930;-79
2022/04/10 10:39:03;;;;;;;;;;;;;;;12.28;100.00;99201.34;5073688;28;19924;-79
2022/04/10 10:41:38;;;;;;;;;;;;;;;12.50;100.00;99208.09;5073176;28;19924;-79
2022/04/10 10:44:15;;;;;;;;;;;;;;;12.70;100.00;99208.84;5073591;28;19962;-79
2022/04/10 10:46:57;;;;;;;;;;;;;;;13.33;100.00;99197.41;5055370;28;20962;-79
2022/04/10 10:49:26;;;;;;;;;;;;;;;13.42;100.00;99208.78;5073534;28;19925;-79
2022/04/10 10:51:54;;;;;;;;;;;;;;;13.79;100.00;99194.97;5055549;28;20383;-79
2022/04/10 10:54:25;;;;;;;;;;;;;;;14.01;100.00;99186.75;5073216;28;20031;-79
2022/04/10 10:56:53;;;;;;;;;;;;;;;13.68;100.00;99186.03;5073224;28;20002;-79
2022/04/10 10:59:21;;;;;;;;;;;;;;;13.73;100.00;99176.28;5055705;28;19961;-79
2022/04/10 11:01:59;;;;;;;;;;;;;;;13.22;100.00;99175.22;5055618;28;19947;-79
2022/04/10 11:04:30;;;;;;;;;;;;;;;13.66;100.00;99170.88;5073451;28;20385;-79
2022/04/10 11:07:10;;;;;;;;;;;;;;;12.56;100.00;99169.91;5073442;28;20409;-79
2022/04/10 11:09:46;;;;;;;;;;;;;;;13.37;100.00;99162.41;5055406;28;19932;-79
2022/04/10 11:12:13;;;;;;;;;;;;;;;13.05;100.00;99165.22;5072335;28;19925;-79
2022/04/10 11:14:41;;;;;;;;;;;;;;;12.53;100.00;99155.97;5055400;28;20371;-79
2022/04/10 11:17:13;;;;;;;;;;;;;;;12.63;100.00;99144.53;5073136;28;19977;-79
2022/04/10 11:19:46;;;;;;;;;;;;;;;13.11;100.00;99151.44;5055459;28;19925;-79
2022/04/10 11:22:16;;;;;;;;;;;;;;;13.62;100.00;99147.69;5073235;28;19939;-79
2022/04/10 11:24:44;;;;;;;;;;;;;;;13.86;100.00;99138.59;5055187;28;20011;-79
2022/04/10 11:27:12;;;;;;;;;;;;;;;13.91;100.00;99138.06;5073315;28;20358;-79
2022/04/10 11:29:54;;;;;;;;;;;;;;;14.40;100.00;99141.47;5073081;28;19936;-79
2022/04/10 11:32:22;;;;;;;;;;;;;;;14.33;100.00;99133.25;5055030;28;20442;-79
2022/04/10 11:34:59;;;;;;;;;;;;;;;14.11;100.00;99141.50;5056133;28;19925;-79
2022/04/10 11:37:36;;;;;;;;;;;;;;;14.41;100.00;99124.16;5055066;28;19931;-79
2022/04/10 11:40:04;;;;;;;;;;;;;;;14.24;100.00;99128.28;5054676;28;19925;-79
2022/04/10 11:42:32;;;;;;;;;;;;;;;14.13;100.00;99133.41;5055072;28;19928;-79
2022/04/10 11:45:00;;;;;;;;;;;;;;;13.98;100.00;99143.47;5072764;28;19930;-79
2022/04/10 11:47:28;;;;;;;;;;;;;;;13.36;100.00;99129.94;5072769;28;20306;-80
2022/04/10 11:49:56;;;;;;;;;;;;;;;13.29;100.00;99129.31;5072815;28;20371;-80
2022/04/10 11:52:23;;;;;;;;;;;;;;;13.71;100.00;99122.56;5072716;28;20380;-80
2022/04/10 11:54:51;;;;;;;;;;;;;;;14.11;100.00;99126.66;5054817;28;19924;-80
2022/04/10 11:57:18;;;;;;;;;;;;;;;13.89;100.00;99118.06;5088356;28;20296;-79
2022/04/10 11:59:45;;;;;;;;;;;;;;;13.95;100.00;99127.50;5054828;28;19924;-80
2022/04/10 12:02:13;;;;;;;;;;;;;;;13.26;100.00;99130.22;5072768;28;19935;-79
2022/04/10 12:04:41;;;;;;;;;;;;;;;13.91;100.00;99126.03;5054623;28;20368;-80
2022/04/10 12:07:10;;;;;;;;;;;;;;;14.25;100.00;99113.00;5088342;28;19974;-80
2022/04/10 12:09:37;;;;;;;;;;;;;;;13.38;100.00;99127.50;5054680;28;19928;-80
2022/04/10 12:12:04;;;;;;;;;;;;;;;13.85;100.00;99116.56;5072574;28;19986;-80
2022/04/10 12:14:32;;;;;;;;;;;;;;;13.64;100.00;99106.72;5072634;28;19989;-80
2022/04/10 12:16:59;;;;;;;;;;;;;;;13.81;100.00;99118.69;5072659;28;19947;-80
2022/04/10 12:19:30;;;;;;;;;;;;;;;14.33;100.00;99122.00;5054638;28;19932;-80
2022/04/10 12:21:57;;;;;;;;;;;;;;;13.84;100.00;99118.59;5054657;28;19924;-79
2022/04/10 12:24:24;;;;;;;;;;;;;;;13.95;100.00;99105.03;5075942;28;19966;-80
2022/04/10 12:26:52;;;;;;;;;;;;;;;14.51;100.00;99107.44;5058693;28;20013;-80
2022/04/10 12:29:21;;;;;;;;;;;;;;;14.81;100.00;99110.47;5076635;28;19933;-80
2022/04/10 12:31:48;;;;;;;;;;;;;;;14.32;100.00;99101.56;5076401;28;19994;-79
2022/04/10 12:34:16;;;;;;;;;;;;;;;14.32;100.00;99101.56;5041997;28;19924;-80
2022/04/10 12:36:45;;;;;;;;;;;;;;;14.41;100.00;99120.56;5076299;28;19925;-80
2022/04/10 12:39:22;;;;;;;;;;;;;;;14.43;100.00;99107.63;5076032;28;20298;-80
2022/04/10 12:42:09;;;;;;;;;;;;;;;13.47;100.00;99112.81;5058314;28;19924;-80
2022/04/10 12:44:37;;;;;;;;;;;;;;;12.48;100.00;99118.03;5041753;28;19928;-80
2022/04/10 12:47:06;;;;;;;;;;;;;;;13.66;100.00;99103.47;5058155;28;19929;-80
2022/04/10 12:49:33;;;;;;;;;;;;;;;14.15;100.00;99097.22;5058321;28;19932;-78
2022/04/10 12:52:04;;;;;;;;;;;;;;;14.38;100.00;99098.97;5075900;28;19947;-80
2022/04/10 12:54:37;;;;;;;;;;;;;;;14.77;100.00;99086.50;5076396;28;19924;-79
2022/04/10 12:57:05;;;;;;;;;;;;;;;13.92;100.00;99091.09;5076200;28;19928;-79
2022/04/10 12:59:44;;;;;;;;;;;;;;;13.53;100.00;99099.81;5076708;28;19977;-80
2022/04/10 13:02:21;;;;;;;;;;;;;;;13.16;100.00;99097.63;5075887;28;19960;-80
2022/04/10 13:04:56;;;;;;;;;;;;;;;13.37;100.00;99109.06;5057991;28;20451;-79
2022/04/10 13:07:27;;;;;;;;;;;;;;;14.24;100.00;99082.53;5057658;28;20406;-80
2022/04/10 13:10:04;;;;;;;;;;;;;;;13.81;100.00;99076.56;5057767;28;19925;-80
2022/04/10 13:12:37;;;;;;;;;;;;;;;14.67;100.00;99076.38;5090918;28;20379;-80
2022/04/10 13:15:05;;;;;;;;;;;;;;;15.14;100.00;99077.22;5057827;28;19925;-80
2022/04/10 13:17:36;;;;;;;;;;;;;;;15.10;100.00;99080.13;5057801;28;19960;-80
2022/04/10 13:20:07;;;;;;;;;;;;;;;15.51;100.00;99073.53;5042053;28;20014;-80